Time;durP1;ratioP1;P1;durP2;ratioP2;P2;SDS_P1;SDS_P2;PMS_P1;PMS_P2;Temp;Humidity;BMP_temperature;BMP_pressure;BME280_temperature;BME280_humidity;BME280_pressure;Samples;Min_cycle;Max_cycle;Signal;HPM_P1;HPM_P2
2021/12/19 00:01:27;;;;;;;0.27;0.27;;;9.60;99.90;;;;;;5053218;28;20218;-93
2021/12/19 00:04:17;;;;;;;0.40;0.40;;;9.60;99.90;;;;;;5052901;28;20221;-91
2021/12/19 00:09:32;;;;;;;4.13;1.57;;;9.60;99.90;;;;;;5054884;28;20742;-94
2021/12/19 00:12:05;;;;;;;0.80;0.80;;;9.60;99.90;;;;;;5055930;28;20229;-94
2021/12/19 00:14:31;;;;;;;0.20;0.20;;;9.60;99.90;;;;;;5054509;28;20283;-95
2021/12/19 00:16:57;;;;;;;0.20;0.20;;;9.60;99.90;;;;;;5050997;28;20936;-95
2021/12/19 00:19:23;;;;;;;0.20;0.20;;;9.60;99.90;;;;;;5051434;28;20214;-95
2021/12/19 00:21:50;;;;;;;0.53;0.53;;;9.60;99.90;;;;;;5049667;28;20340;-93
2021/12/19 00:24:19;;;;;;;0.40;0.40;;;9.60;99.90;;;;;;5046260;28;20260;-94
2021/12/19 00:26:45;;;;;;;0.40;0.40;;;9.60;99.90;;;;;;5038301;28;20222;-92
2021/12/19 00:29:12;;;;;;;0.27;0.27;;;9.60;99.90;;;;;;5041895;28;20175;-92
2021/12/19 00:31:38;;;;;;;1.03;0.90;;;9.60;99.90;;;;;;5047240;28;20738;-91
2021/12/19 00:34:07;;;;;;;0.33;0.33;;;9.60;99.90;;;;;;5046750;28;20305;-94
2021/12/19 00:36:35;;;;;;;1.00;0.60;;;9.70;99.90;;;;;;5050677;28;20217;-94
2021/12/19 00:39:01;;;;;;;0.50;0.50;;;9.70;99.90;;;;;;5047750;28;20224;-93
2021/12/19 00:41:27;;;;;;;0.73;0.60;;;9.60;99.90;;;;;;5049466;28;20277;-93
2021/12/19 00:43:55;;;;;;;0.40;0.40;;;9.60;99.90;;;;;;5049538;28;20300;-92
2021/12/19 00:46:26;;;;;;;0.60;0.60;;;9.60;99.90;;;;;;5041299;28;20556;-93
2021/12/19 00:48:55;;;;;;;0.30;0.30;;;9.60;99.90;;;;;;5043890;28;20237;-93
2021/12/19 00:51:24;;;;;;;0.17;0.17;;;9.60;99.90;;;;;;5049875;28;20248;-92
2021/12/19 00:53:52;;;;;;;0.23;0.23;;;9.50;99.90;;;;;;5047760;28;20237;-95
2021/12/19 00:56:19;;;;;;;0.20;0.20;;;9.50;99.90;;;;;;5046407;28;20485;-92
2021/12/19 00:58:45;;;;;;;0.73;0.73;;;9.50;99.90;;;;;;5046315;28;20210;-91
2021/12/19 01:01:12;;;;;;;6.27;0.40;;;9.40;99.90;;;;;;5047475;28;20202;-93
2021/12/19 01:03:46;;;;;;;0.20;0.20;;;9.50;99.90;;;;;;5046435;28;20224;-92
2021/12/19 01:06:12;;;;;;;0.30;0.30;;;9.50;99.90;;;;;;5048069;28;20217;-94
2021/12/19 01:08:38;;;;;;;0.20;0.20;;;9.50;99.90;;;;;;5048190;28;20197;-93
2021/12/19 01:11:05;;;;;;;0.20;0.20;;;9.60;99.90;;;;;;5048771;28;20213;-92
2021/12/19 01:13:33;;;;;;;0.47;0.47;;;9.50;99.90;;;;;;5047592;28;20564;-93
2021/12/19 01:16:01;;;;;;;0.20;0.20;;;9.40;99.90;;;;;;5047534;28;20263;-95
2021/12/19 01:18:27;;;;;;;0.10;0.10;;;9.40;99.90;;;;;;5046372;28;20236;-93
2021/12/19 01:20:54;;;;;;;0.90;0.60;;;9.50;99.90;;;;;;5047231;28;20263;-95
2021/12/19 01:23:21;;;;;;;0.30;0.30;;;9.50;99.90;;;;;;5048246;28;20201;-95
2021/12/19 01:25:49;;;;;;;0.10;0.10;;;9.50;99.90;;;;;;5047335;28;20269;-95
2021/12/19 01:28:15;;;;;;;0.30;0.30;;;9.50;99.90;;;;;;5045362;28;20221;-93
2021/12/19 01:30:41;;;;;;;0.20;0.20;;;9.50;99.90;;;;;;5047478;28;20228;-93
2021/12/19 01:33:06;;;;;;;0.20;0.20;;;9.40;99.90;;;;;;5047258;28;20229;-92
2021/12/19 01:35:35;;;;;;;0.30;0.30;;;9.40;99.90;;;;;;5048932;28;20186;-92
2021/12/19 01:38:01;;;;;;;0.10;0.10;;;9.50;99.90;;;;;;5049358;28;20250;-95
2021/12/19 01:40:27;;;;;;;0.70;0.70;;;9.50;99.90;;;;;;5049265;28;20289;-92
2021/12/19 01:42:56;;;;;;;0.20;0.20;;;9.50;99.90;;;;;;5039627;28;20597;-92
2021/12/19 01:45:28;;;;;;;0.10;0.10;;;9.60;99.90;;;;;;5045100;28;20309;-93
2021/12/19 01:47:56;;;;;;;0.10;0.10;;;9.40;99.90;;;;;;5043979;28;20249;-92
2021/12/19 01:50:23;;;;;;;0.40;0.40;;;9.30;99.90;;;;;;5044709;28;20190;-92
2021/12/19 01:52:50;;;;;;;0.20;0.20;;;9.30;99.90;;;;;;5048595;28;20238;-94
2021/12/19 01:55:17;;;;;;;0.27;0.27;;;9.30;99.90;;;;;;5046244;28;20225;-95
2021/12/19 01:57:43;;;;;;;0.10;0.10;;;9.30;99.90;;;;;;5045731;28;20210;-92
2021/12/19 02:00:25;;;;;;;0.20;0.20;;;9.30;99.90;;;;;;5047688;28;20543;-93
2021/12/19 02:02:52;;;;;;;0.20;0.20;;;9.30;99.90;;;;;;5048415;28;20222;-94
2021/12/19 02:05:22;;;;;;;0.30;0.30;;;9.30;99.90;;;;;;5048464;28;20197;-94
2021/12/19 02:07:48;;;;;;;0.60;0.60;;;9.20;99.90;;;;;;5046078;28;20286;-91
2021/12/19 02:10:22;;;;;;;0.10;0.10;;;9.20;99.90;;;;;;5041510;28;20304;-92
2021/12/19 02:12:50;;;;;;;0.20;0.20;;;9.20;99.90;;;;;;5064058;28;20241;-92
2021/12/19 02:15:22;;;;;;;0.20;0.20;;;9.20;99.90;;;;;;5049358;28;20305;-95
2021/12/19 02:17:54;;;;;;;0.30;0.30;;;9.20;99.90;;;;;;5031831;28;20636;-95
2021/12/19 02:20:30;;;;;;;0.67;0.23;;;9.30;99.90;;;;;;5048893;28;20200;-94
2021/12/19 02:22:59;;;;;;;0.20;0.20;;;9.30;99.90;;;;;;5021798;28;20609;-94
2021/12/19 02:25:27;;;;;;;0.20;0.20;;;9.30;99.90;;;;;;5046358;28;20241;-94
2021/12/19 02:27:56;;;;;;;0.10;0.10;;;9.10;99.90;;;;;;5046559;28;20304;-93
2021/12/19 02:30:22;;;;;;;0.20;0.20;;;9.10;99.90;;;;;;5038969;28;20220;-93
2021/12/19 02:32:48;;;;;;;0.10;0.10;;;9.00;99.90;;;;;;5055273;28;20230;-95
2021/12/19 02:35:20;;;;;;;0.17;0.17;;;9.20;99.90;;;;;;5046140;28;20205;-92
2021/12/19 02:38:14;;;;;;;0.20;0.20;;;9.20;99.90;;;;;;5046615;28;20623;-92
2021/12/19 02:48:10;;;;;;;0.20;0.20;;;9.20;99.90;;;;;;5047227;28;20281;-95
2021/12/19 02:49:05;;;;;;;0.10;0.10;;;9.20;99.90;;;;;;5044741;28;20297;-93
2021/12/19 02:51:34;;;;;;;0.10;0.10;;;9.20;99.90;;;;;;5045649;28;20245;-92
2021/12/19 02:54:00;;;;;;;0.27;0.27;;;9.20;99.90;;;;;;5046515;28;20235;-93
2021/12/19 02:56:29;;;;;;;0.20;0.20;;;9.20;99.90;;;;;;5045077;28;20185;-92
2021/12/19 02:58:55;;;;;;;0.20;0.20;;;9.10;99.90;;;;;;5047020;28;20190;-92
2021/12/19 03:01:24;;;;;;;0.20;0.20;;;9.10;99.90;;;;;;5047934;28;20228;-94
2021/12/19 03:03:50;;;;;;;0.20;0.20;;;9.10;99.90;;;;;;5047118;28;20359;-95
2021/12/19 03:06:15;;;;;;;0.20;0.20;;;9.10;99.90;;;;;;5047021;28;20226;-93
2021/12/19 03:08:45;;;;;;;0.20;0.20;;;9.10;99.90;;;;;;5044005;28;20281;-94
2021/12/19 03:19:29;;;;;;;3.57;0.40;;;9.10;99.90;;;;;;5048258;28;20313;-94
2021/12/19 03:21:55;;;;;;;0.30;0.30;;;9.10;99.90;;;;;;5050923;28;20301;-93
2021/12/19 03:24:25;;;;;;;0.20;0.20;;;9.10;99.90;;;;;;5052627;28;20724;-95
2021/12/19 03:26:51;;;;;;;0.20;0.20;;;9.10;99.90;;;;;;5049343;28;20221;-92
2021/12/19 03:29:28;;;;;;;0.10;0.10;;;9.10;99.90;;;;;;5055724;28;20192;-96
2021/12/19 03:31:54;;;;;;;0.20;0.20;;;9.20;99.90;;;;;;5021284;28;20717;-94
2021/12/19 03:34:20;;;;;;;0.30;0.30;;;9.10;99.90;;;;;;5052212;28;20228;-95
2021/12/19 03:36:48;;;;;;;0.20;0.20;;;9.20;99.90;;;;;;5050840;28;20218;-94
2021/12/19 03:39:25;;;;;;;2.10;0.70;;;9.20;99.90;;;;;;5066970;28;20222;-93
2021/12/19 03:41:54;;;;;;;0.20;0.20;;;9.20;99.90;;;;;;5047777;28;20224;-96
2021/12/19 03:44:41;;;;;;;0.20;0.20;;;9.20;99.90;;;;;;5065705;28;20833;-93
2021/12/19 03:47:10;;;;;;;0.20;0.20;;;9.20;99.90;;;;;;5052961;28;20627;-95
2021/12/19 03:49:36;;;;;;;0.20;0.20;;;9.20;99.90;;;;;;5045765;28;20249;-95
2021/12/19 03:52:02;;;;;;;0.17;0.17;;;9.20;99.90;;;;;;5051249;28;20249;-92
2021/12/19 03:54:28;;;;;;;0.20;0.20;;;9.20;99.90;;;;;;5050855;28;20218;-95
2021/12/19 03:56:57;;;;;;;0.10;0.10;;;9.20;99.90;;;;;;5051425;28;20739;-95
2021/12/19 03:59:26;;;;;;;0.30;0.30;;;9.20;99.90;;;;;;5048874;28;20186;-95
2021/12/19 04:01:52;;;;;;;0.20;0.20;;;9.20;99.90;;;;;;5049754;28;20218;-95
2021/12/19 04:04:26;;;;;;;0.20;0.20;;;9.20;99.90;;;;;;5019249;28;20217;-95
2021/12/19 04:06:52;;;;;;;0.70;0.70;;;9.20;99.90;;;;;;5052781;28;20216;-94
2021/12/19 04:09:18;;;;;;;0.33;0.33;;;9.20;99.90;;;;;;5049591;28;20209;-93
2021/12/19 04:11:44;;;;;;;0.77;0.73;;;9.30;99.90;;;;;;5048121;28;20253;-91
2021/12/19 04:14:10;;;;;;;0.37;0.37;;;9.30;99.90;;;;;;5053800;28;20562;-93
2021/12/19 04:16:36;;;;;;;3.00;1.57;;;9.30;99.90;;;;;;5053374;28;20280;-93
2021/12/19 04:19:04;;;;;;;6.60;0.40;;;9.30;99.90;;;;;;5042323;28;20574;-93
2021/12/19 04:21:32;;;;;;;0.30;0.30;;;9.30;99.90;;;;;;5047112;28;20308;-92
2021/12/19 04:23:58;;;;;;;0.97;0.53;;;9.30;99.90;;;;;;5049493;28;20217;-94
2021/12/19 04:26:24;;;;;;;0.20;0.20;;;9.30;99.90;;;;;;5050238;28;20225;-91
2021/12/19 04:28:57;;;;;;;4.43;0.50;;;9.30;99.90;;;;;;5051742;28;20273;-95
2021/12/19 04:31:23;;;;;;;0.60;0.60;;;9.30;99.90;;;;;;5052136;28;20218;-94
2021/12/19 04:33:54;;;;;;;0.20;0.20;;;9.40;99.90;;;;;;5051529;28;20238;-94
2021/12/19 04:36:24;;;;;;;0.50;0.50;;;9.40;99.90;;;;;;5036778;28;20218;-95
2021/12/19 05:01:01;;;;;;;2.17;1.13;;;9.50;99.90;;;;;;5053732;28;20216;-95
2021/12/19 05:03:49;;;;;;;2.87;1.63;;;9.60;99.90;;;;;;5051036;28;20217;-96
2021/12/19 05:16:40;;;;;;;7.13;2.87;;;9.50;99.90;;;;;;5048944;28;20238;-94
2021/12/19 05:19:17;;;;;;;0.43;0.43;;;9.60;99.90;;;;;;5046221;28;20217;-94
2021/12/19 05:21:43;;;;;;;2.80;1.47;;;9.60;99.90;;;;;;5049100;28;20328;-95
2021/12/19 05:26:44;;;;;;;3.30;1.00;;;9.60;99.90;;;;;;5048260;28;20641;-95
2021/12/19 05:29:10;;;;;;;1.40;1.30;;;9.60;99.90;;;;;;5048463;28;20194;-95
2021/12/19 05:31:39;;;;;;;0.60;0.60;;;9.50;99.90;;;;;;5035277;28;20218;-95
2021/12/19 05:34:05;;;;;;;6.70;0.57;;;9.50;99.90;;;;;;5047625;28;20237;-94
2021/12/19 05:47:23;;;;;;;0.70;0.70;;;9.50;99.90;;;;;;5049933;28;20185;-95
2021/12/19 05:49:52;;;;;;;6.37;0.80;;;9.50;99.90;;;;;;5048358;28;20678;-95
2021/12/19 05:52:20;;;;;;;1.80;0.60;;;9.50;99.90;;;;;;5049870;28;20236;-93
2021/12/19 05:54:49;;;;;;;0.80;0.80;;;9.50;99.90;;;;;;5040596;28;20217;-95
2021/12/19 05:57:15;;;;;;;1.23;0.83;;;9.50;99.90;;;;;;5052734;28;20234;-94
2021/12/19 05:59:43;;;;;;;0.93;0.93;;;9.60;99.90;;;;;;5048215;28;20220;-95
2021/12/19 06:02:17;;;;;;;1.23;1.23;;;9.50;99.90;;;;;;5050638;28;20732;-95
2021/12/19 06:04:44;;;;;;;0.90;0.90;;;9.50;99.90;;;;;;5049691;28;20271;-95
2021/12/19 06:07:10;;;;;;;1.50;1.40;;;9.50;99.90;;;;;;5044948;28;20269;-95
2021/12/19 06:09:36;;;;;;;1.50;1.50;;;9.50;99.90;;;;;;5041091;28;20213;-94
2021/12/19 06:12:03;;;;;;;3.50;1.50;;;9.60;99.90;;;;;;5046188;28;20722;-94
2021/12/19 06:14:33;;;;;;;3.60;0.77;;;9.50;99.90;;;;;;5045895;28;20578;-93
2021/12/19 06:16:59;;;;;;;0.90;0.60;;;9.60;99.90;;;;;;5048249;28;20182;-94
2021/12/19 06:19:26;;;;;;;1.60;0.63;;;9.60;99.90;;;;;;5045828;28;20318;-93
2021/12/19 06:21:54;;;;;;;0.43;0.43;;;9.60;99.90;;;;;;5032150;28;20255;-92
2021/12/19 06:24:23;;;;;;;2.73;1.33;;;9.60;99.90;;;;;;5051940;28;20242;-93
2021/12/19 06:26:53;;;;;;;1.07;0.77;;;9.60;99.90;;;;;;5035981;28;20229;-93
2021/12/19 06:29:24;;;;;;;0.23;0.23;;;9.40;99.90;;;;;;5053313;28;20289;-93
2021/12/19 06:31:53;;;;;;;0.40;0.40;;;9.40;99.90;;;;;;5053786;28;20224;-94
2021/12/19 06:34:25;;;;;;;0.20;0.20;;;9.40;99.90;;;;;;5052356;28;20229;-93
2021/12/19 06:36:52;;;;;;;0.83;0.30;;;9.40;99.90;;;;;;5051884;28;20217;-94
2021/12/19 06:39:19;;;;;;;0.57;0.57;;;9.40;99.90;;;;;;5045862;28;20221;-93
2021/12/19 06:41:48;;;;;;;4.63;1.17;;;9.40;99.90;;;;;;5031130;28;20229;-94
2021/12/19 06:44:16;;;;;;;0.30;0.30;;;9.40;99.90;;;;;;5039500;28;20192;-95
2021/12/19 06:46:42;;;;;;;0.33;0.33;;;9.40;99.90;;;;;;5045822;28;20263;-95
2021/12/19 06:49:11;;;;;;;17.67;0.97;;;9.40;99.90;;;;;;5042347;28;20268;-95
2021/12/19 06:51:42;;;;;;;0.27;0.27;;;9.30;99.90;;;;;;5048068;28;20271;-94
2021/12/19 06:54:08;;;;;;;0.50;0.50;;;9.30;99.90;;;;;;5036276;28;20229;-95
2021/12/19 06:56:35;;;;;;;2.17;2.10;;;9.40;99.90;;;;;;5052716;28;20182;-94
2021/12/19 06:59:00;;;;;;;3.03;0.53;;;9.40;99.90;;;;;;5050910;28;20657;-95
2021/12/19 07:01:26;;;;;;;0.27;0.27;;;9.40;99.90;;;;;;5050948;28;20221;-95
2021/12/19 07:03:55;;;;;;;0.20;0.20;;;9.40;99.90;;;;;;5034262;28;20218;-95
2021/12/19 07:06:21;;;;;;;0.60;0.60;;;9.40;99.90;;;;;;5033659;28;20304;-95
2021/12/19 07:08:46;;;;;;;0.70;0.63;;;9.40;99.90;;;;;;5043454;28;20718;-94
2021/12/19 07:11:15;;;;;;;2.07;0.80;;;9.50;99.90;;;;;;5050530;28;20190;-95
2021/12/19 07:13:41;;;;;;;1.53;0.83;;;9.50;99.90;;;;;;5052010;28;20689;-94
2021/12/19 07:16:09;;;;;;;0.87;0.53;;;9.50;99.90;;;;;;5047568;28;20232;-94
2021/12/19 07:18:38;;;;;;;1.17;1.07;;;9.50;99.90;;;;;;5051361;28;20218;-94
2021/12/19 07:21:07;;;;;;;0.80;0.80;;;9.60;99.90;;;;;;5046264;28;20241;-93
2021/12/19 07:23:34;;;;;;;2.30;1.50;;;9.60;99.90;;;;;;5051993;28;20291;-95
2021/12/19 07:26:01;;;;;;;1.43;0.40;;;9.60;99.90;;;;;;5036437;28;20677;-95
2021/12/19 07:28:27;;;;;;;1.27;1.17;;;9.60;99.90;;;;;;5051531;28;20221;-96
2021/12/19 07:30:56;;;;;;;8.13;1.30;;;9.60;99.90;;;;;;5053465;28;20209;-93
2021/12/19 07:33:23;;;;;;;1.00;0.97;;;9.60;99.90;;;;;;5052189;28;20690;-94
2021/12/19 07:35:50;;;;;;;5.03;1.60;;;9.70;99.90;;;;;;5046790;28;20216;-94
2021/12/19 07:38:25;;;;;;;2.40;0.80;;;9.80;99.90;;;;;;5041599;28;20182;-95
2021/12/19 07:40:54;;;;;;;1.57;1.10;;;9.70;99.90;;;;;;5048484;28;20216;-93
2021/12/19 07:43:21;;;;;;;0.50;0.50;;;9.80;99.90;;;;;;5046566;28;20225;-92
2021/12/19 07:45:46;;;;;;;3.50;0.93;;;9.70;99.90;;;;;;5045172;28;20234;-94
2021/12/19 07:48:12;;;;;;;0.77;0.77;;;9.70;99.90;;;;;;5037367;28;20628;-95
2021/12/19 07:50:41;;;;;;;1.13;0.80;;;9.70;99.90;;;;;;5029613;28;20257;-93
2021/12/19 07:53:11;;;;;;;2.33;2.17;;;9.70;99.90;;;;;;5049791;28;20225;-93
2021/12/19 07:55:40;;;;;;;1.13;0.43;;;9.70;99.90;;;;;;5039145;28;20312;-93
2021/12/19 07:58:06;;;;;;;12.17;0.73;;;9.70;99.90;;;;;;5047570;28;20221;-92
2021/12/19 08:00:32;;;;;;;0.43;0.43;;;9.70;99.90;;;;;;5013222;28;20596;-89
2021/12/19 08:02:58;;;;;;;0.83;0.83;;;9.80;99.90;;;;;;5047583;28;20218;-93
2021/12/19 08:05:39;;;;;;;0.30;0.30;;;9.80;99.90;;;;;;5045233;28;20221;-92
2021/12/19 08:08:05;;;;;;;0.47;0.47;;;9.80;99.90;;;;;;5048763;28;20297;-94
2021/12/19 08:12:59;;;;;;;0.20;0.20;;;9.80;99.90;;;;;;5050015;28;20237;-93
2021/12/19 08:15:25;;;;;;;0.50;0.50;;;9.80;99.90;;;;;;5049220;28;20314;-93
2021/12/19 08:17:51;;;;;;;0.20;0.20;;;9.80;99.90;;;;;;5051145;28;20221;-90
2021/12/19 08:20:17;;;;;;;0.83;0.83;;;9.80;99.90;;;;;;5016392;28;20643;-92
2021/12/19 08:22:48;;;;;;;0.50;0.50;;;9.80;99.90;;;;;;5049080;28;20224;-92
2021/12/19 08:25:14;;;;;;;0.40;0.40;;;9.80;99.90;;;;;;5049322;28;20234;-92
2021/12/19 08:27:40;;;;;;;0.30;0.30;;;9.80;99.90;;;;;;5061506;28;20210;-90
2021/12/19 08:30:12;;;;;;;0.77;0.63;;;9.80;99.90;;;;;;5067980;28;20258;-89
2021/12/19 08:32:38;;;;;;;0.50;0.50;;;9.80;99.90;;;;;;5061382;28;20222;-91
2021/12/19 08:35:07;;;;;;;0.40;0.40;;;9.80;99.90;;;;;;5046257;28;20189;-92
2021/12/19 08:37:33;;;;;;;0.90;0.60;;;9.90;99.90;;;;;;5022198;28;20244;-91
2021/12/19 08:39:59;;;;;;;0.67;0.50;;;9.90;99.90;;;;;;5028949;28;20220;-89
2021/12/19 08:42:25;;;;;;;0.57;0.50;;;9.90;99.90;;;;;;5029842;28;20249;-90
2021/12/19 08:44:50;;;;;;;2.63;0.60;;;9.90;99.90;;;;;;5046825;28;20217;-89
2021/12/19 08:47:17;;;;;;;0.27;0.27;;;9.90;99.90;;;;;;5032425;28;20190;-93
2021/12/19 08:49:43;;;;;;;1.23;0.30;;;9.90;99.90;;;;;;5045992;28;20312;-90
2021/12/19 08:52:10;;;;;;;0.30;0.30;;;9.90;99.90;;;;;;5046677;28;20249;-92
2021/12/19 08:54:37;;;;;;;0.57;0.57;;;10.00;99.90;;;;;;5043018;28;20225;-90
2021/12/19 08:57:03;;;;;;;2.77;1.70;;;10.00;99.90;;;;;;5049694;28;20213;-93
2021/12/19 08:59:29;;;;;;;0.20;0.20;;;10.00;99.90;;;;;;5040660;28;20217;-93
2021/12/19 09:01:59;;;;;;;6.53;0.87;;;10.00;99.90;;;;;;5049598;28;20185;-93
2021/12/19 09:04:25;;;;;;;0.53;0.53;;;10.00;99.90;;;;;;5046850;28;20206;-95
2021/12/19 09:06:56;;;;;;;0.30;0.30;;;10.00;99.90;;;;;;5034018;28;20228;-94
2021/12/19 09:09:22;;;;;;;6.23;2.53;;;10.00;99.90;;;;;;5047457;28;20275;-92
2021/12/19 09:11:48;;;;;;;0.50;0.43;;;10.00;99.90;;;;;;5031158;28;20683;-94
2021/12/19 09:14:13;;;;;;;1.23;0.73;;;10.00;99.90;;;;;;5040788;28;20201;-95
2021/12/19 09:16:39;;;;;;;0.37;0.37;;;10.00;99.90;;;;;;5030862;28;20457;-93
2021/12/19 09:19:05;;;;;;;7.07;1.47;;;10.00;99.90;;;;;;5045634;28;20546;-93
2021/12/19 09:21:31;;;;;;;1.03;0.80;;;10.00;99.90;;;;;;5046888;28;20270;-91
2021/12/19 09:23:57;;;;;;;0.20;0.20;;;10.00;99.90;;;;;;5030440;28;20234;-91
2021/12/19 09:26:22;;;;;;;4.53;0.83;;;10.00;99.90;;;;;;5014247;28;20658;-91
2021/12/19 09:28:48;;;;;;;0.43;0.43;;;10.00;99.90;;;;;;5015163;28;20225;-92
2021/12/19 09:31:14;;;;;;;1.70;1.63;;;10.00;99.90;;;;;;5031711;28;20217;-93
2021/12/19 09:33:40;;;;;;;0.30;0.30;;;10.10;99.90;;;;;;5031003;28;20557;-91
2021/12/19 09:36:06;;;;;;;0.53;0.53;;;10.00;99.90;;;;;;5031489;28;20584;-91
2021/12/19 09:38:34;;;;;;;1.57;1.30;;;10.10;99.90;;;;;;5048709;28;20197;-91
2021/12/19 09:41:11;;;;;;;0.20;0.20;;;10.00;99.90;;;;;;5032449;28;20205;-89
2021/12/19 09:43:41;;;;;;;0.57;0.57;;;10.00;99.90;;;;;;5047775;28;20214;-89
2021/12/19 09:46:12;;;;;;;0.20;0.20;;;10.00;99.90;;;;;;5032054;28;20218;-91
2021/12/19 09:48:40;;;;;;;2.10;0.43;;;10.00;99.90;;;;;;5043097;28;20222;-93
2021/12/19 09:51:08;;;;;;;0.47;0.47;;;10.00;99.90;;;;;;5046688;28;20773;-92
2021/12/19 09:53:34;;;;;;;0.33;0.23;;;10.00;99.90;;;;;;5043970;28;20217;-91
2021/12/19 09:56:00;;;;;;;0.57;0.50;;;10.10;99.90;;;;;;5046701;28;20545;-92
2021/12/19 09:58:25;;;;;;;14.53;0.50;;;10.10;99.90;;;;;;5029187;28;20225;-92
2021/12/19 10:00:53;;;;;;;0.73;0.73;;;10.10;99.90;;;;;;5044769;28;20240;-93
2021/12/19 10:03:20;;;;;;;0.53;0.53;;;10.10;99.90;;;;;;5046284;28;20217;-92
2021/12/19 10:05:46;;;;;;;0.20;0.20;;;10.20;99.90;;;;;;5042655;28;20222;-91
2021/12/19 10:08:23;;;;;;;0.97;0.50;;;10.20;99.90;;;;;;5045926;28;20194;-90
2021/12/19 10:10:56;;;;;;;2.83;1.30;;;10.10;99.90;;;;;;5046113;28;20209;-91
2021/12/19 10:13:34;;;;;;;0.40;0.40;;;10.10;99.90;;;;;;5030085;28;20236;-90
2021/12/19 10:16:00;;;;;;;3.20;0.50;;;10.20;99.90;;;;;;5044985;28;20229;-90
2021/12/19 10:18:26;;;;;;;10.30;3.37;;;10.20;99.90;;;;;;5045452;28;20221;-87
2021/12/19 10:20:59;;;;;;;0.43;0.43;;;10.20;99.90;;;;;;5045916;28;20214;-89
2021/12/19 10:23:31;;;;;;;0.67;0.67;;;10.20;99.90;;;;;;5044538;28;20193;-86
2021/12/19 10:26:10;;;;;;;0.20;0.20;;;10.20;99.90;;;;;;5040930;28;20193;-86
2021/12/19 10:28:56;;;;;;;9.70;1.70;;;10.20;99.90;;;;;;5044372;28;20210;-89
2021/12/19 10:31:25;;;;;;;0.57;0.57;;;10.20;99.90;;;;;;5045176;28;20214;-88
2021/12/19 10:33:51;;;;;;;0.20;0.20;;;10.20;99.90;;;;;;5030106;28;20241;-90
2021/12/19 10:36:19;;;;;;;0.30;0.30;;;10.20;99.90;;;;;;5045005;28;20218;-89
2021/12/19 10:38:49;;;;;;;0.80;0.80;;;10.10;99.90;;;;;;5047099;28;20236;-90
2021/12/19 10:41:33;;;;;;;3.40;1.20;;;10.20;99.90;;;;;;5061769;28;20200;-88
2021/12/19 10:44:07;;;;;;;8.20;0.77;;;10.10;99.90;;;;;;5048136;28;20217;-87
2021/12/19 10:46:40;;;;;;;0.63;0.63;;;10.10;99.90;;;;;;5044960;28;20205;-86
2021/12/19 10:49:32;;;;;;;0.30;0.30;;;10.10;99.90;;;;;;5045556;28;20221;-86
2021/12/19 10:52:04;;;;;;;4.33;0.80;;;10.20;99.90;;;;;;5042265;28;20218;-88
2021/12/19 10:54:31;;;;;;;0.20;0.20;;;10.10;99.90;;;;;;5025834;28;20218;-87
2021/12/19 10:57:12;;;;;;;0.67;0.67;;;10.10;99.90;;;;;;5042563;28;20693;-87
2021/12/19 10:59:38;;;;;;;5.00;1.07;;;10.10;99.90;;;;;;5042455;28;20208;-87
2021/12/19 11:02:03;;;;;;;2.00;0.47;;;10.10;99.90;;;;;;5042273;28;20198;-87
2021/12/19 11:04:34;;;;;;;0.77;0.77;;;10.20;99.90;;;;;;5043354;28;20218;-87
2021/12/19 11:07:02;;;;;;;2.07;1.93;;;10.20;99.90;;;;;;5040538;28;20300;-87
2021/12/19 11:09:34;;;;;;;0.53;0.47;;;10.20;99.90;;;;;;5041974;28;20300;-87
2021/12/19 11:12:05;;;;;;;0.90;0.90;;;10.20;99.90;;;;;;5034631;28;20229;-90
2021/12/19 11:14:45;;;;;;;0.20;0.20;;;10.20;99.90;;;;;;5039219;28;20186;-85
2021/12/19 11:17:21;;;;;;;9.90;0.93;;;10.20;99.90;;;;;;5042877;28;20673;-85
2021/12/19 11:19:48;;;;;;;0.57;0.57;;;10.30;99.90;;;;;;5036444;28;20209;-85
2021/12/19 11:22:23;;;;;;;0.90;0.83;;;10.30;99.90;;;;;;5026087;28;20225;-87
2021/12/19 11:24:50;;;;;;;4.00;0.90;;;10.30;99.90;;;;;;5042317;28;20232;-85
2021/12/19 11:27:16;;;;;;;1.80;1.30;;;10.40;99.90;;;;;;5042321;28;20321;-88
2021/12/19 11:29:44;;;;;;;0.97;0.40;;;10.40;99.90;;;;;;5026034;28;20336;-88
2021/12/19 11:32:18;;;;;;;0.40;0.40;;;10.40;99.90;;;;;;5043715;28;20226;-86
2021/12/19 11:35:03;;;;;;;2.07;0.93;;;10.40;99.90;;;;;;5026476;28;20217;-86
2021/12/19 11:37:41;;;;;;;0.10;0.10;;;10.40;99.90;;;;;;5041485;28;21154;-89
2021/12/19 11:40:09;;;;;;;0.40;0.37;;;10.30;99.90;;;;;;5040512;28;20694;-88
2021/12/19 11:42:38;;;;;;;1.30;0.87;;;10.30;99.90;;;;;;5039898;28;20283;-85
2021/12/19 11:48:05;;;;;;;0.30;0.30;;;10.40;99.90;;;;;;5046642;28;20218;-87
2021/12/19 11:50:36;;;;;;;0.40;0.40;;;10.40;99.90;;;;;;5040839;28;20247;-87
2021/12/19 11:53:08;;;;;;;0.30;0.30;;;10.40;99.90;;;;;;5031689;28;20667;-84
2021/12/19 11:55:38;;;;;;;3.63;1.47;;;10.40;99.90;;;;;;5045627;28;20233;-88
2021/12/19 11:58:07;;;;;;;0.73;0.73;;;10.40;99.90;;;;;;5046413;28;20233;-86
2021/12/19 12:00:52;;;;;;;0.70;0.67;;;10.50;99.90;;;;;;5044366;28;20230;-87
2021/12/19 12:03:18;;;;;;;0.47;0.47;;;10.50;99.90;;;;;;5046130;28;20253;-89
2021/12/19 12:05:49;;;;;;;2.70;0.70;;;10.50;99.90;;;;;;5048755;28;20229;-91
2021/12/19 12:08:20;;;;;;;0.30;0.30;;;10.60;99.90;;;;;;5040415;28;20205;-92
2021/12/19 12:10:52;;;;;;;0.43;0.43;;;10.50;99.90;;;;;;5046179;28;20218;-89
2021/12/19 12:13:27;;;;;;;0.57;0.57;;;10.50;99.90;;;;;;5046547;28;20311;-87
2021/12/19 12:16:03;;;;;;;1.40;1.33;;;10.50;99.90;;;;;;5045726;28;20239;-90
2021/12/19 12:18:34;;;;;;;1.93;1.63;;;10.50;99.90;;;;;;5045981;28;20263;-89
2021/12/19 12:21:51;;;;;;;3.93;0.40;;;10.50;99.90;;;;;;5045494;28;20218;-89
2021/12/19 12:24:13;;;;;;;0.30;0.30;;;10.50;99.90;;;;;;5044002;28;20682;-87
2021/12/19 12:26:57;;;;;;;0.63;0.63;;;10.50;99.90;;;;;;5047051;28;20714;-88
2021/12/19 12:29:24;;;;;;;7.20;0.73;;;10.50;99.90;;;;;;5039264;28;20276;-88
2021/12/19 12:31:52;;;;;;;1.03;0.70;;;10.60;99.90;;;;;;5029545;28;20217;-87
2021/12/19 12:34:18;;;;;;;4.33;0.47;;;10.60;99.90;;;;;;5041672;28;20230;-90
2021/12/19 12:36:44;;;;;;;0.20;0.20;;;10.60;99.90;;;;;;5039527;28;20697;-88
2021/12/19 12:39:20;;;;;;;3.10;0.43;;;10.60;99.90;;;;;;5043926;28;20991;-89
2021/12/19 12:44:22;;;;;;;0.50;0.50;;;10.60;99.90;;;;;;5048031;28;20194;-90
2021/12/19 12:46:50;;;;;;;1.30;0.30;;;10.50;99.90;;;;;;5046719;28;20221;-89
2021/12/19 12:49:17;;;;;;;6.20;0.50;;;10.50;99.90;;;;;;5049923;28;20225;-89
2021/12/19 12:51:46;;;;;;;3.07;0.90;;;10.50;99.90;;;;;;5059542;28;20255;-90
2021/12/19 12:54:13;;;;;;;0.50;0.50;;;10.50;99.90;;;;;;5064875;28;20217;-89
2021/12/19 12:56:51;;;;;;;7.40;1.30;;;10.60;99.90;;;;;;5047485;28;20269;-92
2021/12/19 12:59:21;;;;;;;6.90;0.40;;;10.50;99.90;;;;;;5044706;28;20231;-92
2021/12/19 13:01:54;;;;;;;0.73;0.73;;;10.50;99.90;;;;;;5046758;28;20222;-90
2021/12/19 13:04:23;;;;;;;0.93;0.83;;;10.50;99.90;;;;;;5046170;28;20291;-89
2021/12/19 13:06:55;;;;;;;0.40;0.40;;;10.50;99.90;;;;;;5038826;28;20210;-92
2021/12/19 13:09:42;;;;;;;2.50;0.73;;;10.50;99.90;;;;;;5044622;28;20300;-89
2021/12/19 13:12:16;;;;;;;0.40;0.37;;;10.50;99.90;;;;;;5040580;28;20221;-89
2021/12/19 13:15:01;;;;;;;0.23;0.23;;;10.50;99.90;;;;;;5043710;28;20189;-91
2021/12/19 13:17:31;;;;;;;0.73;0.73;;;10.50;99.90;;;;;;5043248;28;20646;-92
2021/12/19 13:19:59;;;;;;;7.30;0.80;;;10.60;99.90;;;;;;5043008;28;20181;-90
2021/12/19 13:22:27;;;;;;;0.20;0.20;;;10.60;99.90;;;;;;5045898;28;20221;-91
2021/12/19 13:24:55;;;;;;;0.70;0.70;;;10.50;99.90;;;;;;5044736;28;20226;-90
2021/12/19 13:27:32;;;;;;;6.60;0.70;;;10.60;99.90;;;;;;5041632;28;20225;-93
2021/12/19 13:30:18;;;;;;;1.97;1.27;;;10.60;99.90;;;;;;5046915;28;20241;-94
2021/12/19 13:32:55;;;;;;;1.57;1.47;;;10.60;99.90;;;;;;5045941;28;20281;-91
2021/12/19 13:35:26;;;;;;;9.10;0.43;;;10.60;99.90;;;;;;5048211;28;20182;-92
2021/12/19 13:38:00;;;;;;;1.00;0.37;;;10.60;99.90;;;;;;5049324;28;20252;-94
2021/12/19 13:40:39;;;;;;;0.30;0.30;;;10.50;99.90;;;;;;5048819;28;20212;-92
2021/12/19 13:43:06;;;;;;;0.30;0.30;;;10.40;99.90;;;;;;5047072;28;20271;-93
2021/12/19 13:45:38;;;;;;;0.53;0.50;;;10.40;99.90;;;;;;5046781;28;20324;-91
2021/12/19 13:48:10;;;;;;;0.20;0.20;;;10.30;99.90;;;;;;5044368;28;20225;-93
2021/12/19 13:50:39;;;;;;;0.23;0.23;;;10.20;99.90;;;;;;5042954;28;20317;-96
2021/12/19 13:53:06;;;;;;;0.50;0.23;;;10.10;99.90;;;;;;5050679;28;20209;-93
2021/12/19 13:55:48;;;;;;;0.50;0.30;;;10.10;99.90;;;;;;5041189;28;20304;-94
2021/12/19 13:58:19;;;;;;;2.60;1.47;;;10.10;99.90;;;;;;5048491;28;20217;-94
2021/12/19 14:00:51;;;;;;;0.30;0.30;;;10.10;99.90;;;;;;5048838;28;20248;-95
2021/12/19 14:03:37;;;;;;;12.17;1.13;;;10.10;99.90;;;;;;5051774;28;20209;-94
2021/12/19 14:06:07;;;;;;;2.10;2.00;;;10.10;99.90;;;;;;5048479;28;20698;-93
2021/12/19 14:08:50;;;;;;;0.97;0.97;;;10.20;99.90;;;;;;5039384;28;20211;-92
2021/12/19 14:11:19;;;;;;;2.13;0.67;;;10.20;99.90;;;;;;5061924;28;20228;-91
2021/12/19 14:14:09;;;;;;;0.10;0.10;;;10.20;99.90;;;;;;5043685;28;20218;-93
2021/12/19 14:16:42;;;;;;;0.20;0.20;;;10.20;99.90;;;;;;5032819;28;20651;-94